Time;durP1;ratioP1;P1;durP2;ratioP2;P2;SDS_P1;SDS_P2;PMS_P1;PMS_P2;Temp;Humidity;BMP_temperature;BMP_pressure;BME280_temperature;BME280_humidity;BME280_pressure;Samples;Min_cycle;Max_cycle;Signal;HPM_P1;HPM_P2
2023/01/17 00:00:24;;;;;;;39.83;20.30;;;;;;;7.67;94.25;99308.13;124647;1102;104236;-79
2023/01/17 00:03:15;;;;;;;40.33;20.07;;;;;;;7.67;94.61;99298.55;124571;1102;101833;-77
2023/01/17 00:11:21;;;;;;;44.47;21.80;;;;;;;7.69;94.45;99298.60;124692;1102;101857;-79
2023/01/17 00:13:52;;;;;;;39.03;19.30;;;;;;;7.69;94.06;99303.82;124774;1102;104165;-77
2023/01/17 00:16:24;;;;;;;40.20;21.17;;;;;;;7.69;94.95;99296.86;124645;1102;104214;-80
2023/01/17 01:35:33;;;;;;;44.60;23.70;;;;;;;7.78;95.34;99254.46;124607;1102;104185;-79
2023/01/17 01:38:05;;;;;;;44.70;22.83;;;;;;;7.79;95.33;99257.95;124724;1102;104121;-78
2023/01/17 01:40:41;;;;;;;43.33;22.00;;;;;;;7.78;95.43;99244.02;124599;1105;104306;-78
2023/01/17 01:43:15;;;;;;;42.60;22.33;;;;;;;7.80;95.81;99239.70;124606;1105;104185;-79
2023/01/17 01:45:50;;;;;;;42.75;22.65;;;;;;;7.82;95.42;99239.75;124619;1105;101836;-79
2023/01/17 01:48:32;;;;;;;42.27;23.77;;;;;;;7.82;95.20;99238.05;124565;1102;102138;-80
2023/01/17 01:51:07;;;;;;;44.83;22.13;;;;;;;7.82;95.54;99226.69;124614;1102;104173;-79
2023/01/17 01:53:42;;;;;;;41.17;21.77;;;;;;;7.82;95.47;99232.82;124667;1102;102464;-80
2023/01/17 01:56:15;;;;;;;46.30;21.53;;;;;;;7.81;95.71;99223.20;124560;1102;101912;-78
2023/01/17 01:58:50;;;;;;;44.77;22.90;;;;;;;7.81;95.44;99214.50;124620;1102;102314;-80
2023/01/17 02:01:21;;;;;;;41.77;21.00;;;;;;;7.82;95.87;99213.63;124639;1105;101772;-78
2023/01/17 02:03:53;;;;;;;41.20;21.33;;;;;;;7.82;95.65;99214.55;124645;1105;104220;-78
2023/01/17 02:06:33;;;;;;;46.93;22.70;;;;;;;7.82;95.76;99209.31;124790;1103;101822;-79
2023/01/17 02:09:07;;;;;;;44.37;23.63;;;;;;;7.83;95.84;99218.02;124672;1102;101890;-80
2023/01/17 02:11:40;;;;;;;41.53;20.70;;;;;;;7.81;95.98;99202.31;124597;1102;104248;-79
2023/01/17 02:14:16;;;;;;;;;;;;;;;7.81;95.80;99204.05;124588;1102;104254;-78
2023/01/17 02:17:03;;;;;;;42.05;22.40;;;;;;;7.81;95.54;99199.70;124679;1102;102111;-78
2023/01/17 02:20:18;;;;;;;44.47;22.47;;;;;;;7.80;95.47;99197.92;124579;1102;102338;-80
2023/01/17 02:23:14;;;;;;;43.73;23.63;;;;;;;7.81;95.65;99193.61;124576;1102;104272;-77
2023/01/17 02:26:09;;;;;;;46.73;22.40;;;;;;;7.81;95.29;99184.03;124522;1102;102093;-78
2023/01/17 02:29:00;;;;;;;38.73;20.97;;;;;;;7.81;95.58;99191.00;124540;1103;101922;-77
2023/01/17 02:31:38;;;;;;;43.37;20.60;;;;;;;7.82;95.60;99190.12;124596;1105;104223;-78
2023/01/17 02:34:18;;;;;;;44.83;23.73;;;;;;;7.81;95.85;99184.03;124655;1103;102284;-80
2023/01/17 02:36:54;;;;;;;43.77;22.47;;;;;;;7.81;95.92;99184.03;124681;1105;104335;-78
2023/01/17 02:39:30;;;;;;;42.13;22.57;;;;;;;7.83;95.80;99187.56;124680;1102;105557;-79
2023/01/17 02:42:06;;;;;;;41.13;21.70;;;;;;;7.83;95.28;99182.33;124628;1102;101936;-79
2023/01/17 02:44:42;;;;;;;39.03;20.93;;;;;;;7.85;95.87;99175.45;124646;1102;102268;-78
2023/01/17 02:47:25;;;;;;;43.93;22.57;;;;;;;7.84;95.74;99173.66;124617;1102;104178;-79
2023/01/17 02:50:02;;;;;;;45.93;22.27;;;;;;;7.85;95.70;99172.84;124663;1100;104176;-78
2023/01/17 02:52:48;;;;;;;42.60;22.40;;;;;;;7.86;95.75;99165.88;124604;1102;104175;-80
2023/01/17 02:55:35;;;;;;;42.50;22.27;;;;;;;7.85;95.09;99180.67;124594;1102;101823;-79
2023/01/17 02:58:20;;;;;;;51.27;23.67;;;;;;;7.85;95.36;99175.45;124644;1102;104175;-78
2023/01/17 03:01:03;;;;;;;46.23;23.17;;;;;;;7.86;95.67;99177.19;124540;1102;104185;-79
2023/01/17 03:03:40;;;;;;;41.67;21.90;;;;;;;7.87;95.69;99178.09;124627;1102;104188;-77
2023/01/17 03:06:17;;;;;;;44.53;22.53;;;;;;;7.87;95.08;99173.75;124604;1102;104290;-79
2023/01/17 03:08:51;;;;;;;46.33;23.67;;;;;;;7.87;95.59;99173.75;124621;1102;104223;-78
2023/01/17 03:11:22;;;;;;;47.35;24.40;;;;;;;7.87;95.31;99173.75;124579;1102;111547;-79
2023/01/17 03:13:57;;;;;;;44.03;23.63;;;;;;;7.89;95.28;99177.27;124553;1105;104182;-78
2023/01/17 03:16:33;;;;;;;43.60;22.73;;;;;;;7.89;95.33;99179.01;124573;1102;102122;-80
2023/01/17 03:19:08;;;;;;;44.93;21.47;;;;;;;7.89;95.24;99176.39;124586;1102;102137;-79
2023/01/17 03:21:39;;;;;;;45.27;23.27;;;;;;;7.89;95.06;99171.17;124713;1102;104204;-77
2023/01/17 03:24:11;;;;;;;45.83;23.53;;;;;;;7.89;94.99;99172.05;124611;1102;101911;-79
2023/01/17 03:26:44;;;;;;;43.07;22.37;;;;;;;7.88;95.31;99153.72;124611;1102;101929;-78
2023/01/17 03:29:16;;;;;;;45.33;23.17;;;;;;;7.88;95.28;99166.78;124660;1102;104188;-77
2023/01/17 03:31:47;;;;;;;43.97;23.93;;;;;;;7.88;95.12;99165.08;124629;1102;104172;-77
2023/01/17 03:34:18;;;;;;;43.43;22.03;;;;;;;7.88;94.90;99159.85;124579;1102;104277;-77
2023/01/17 03:36:50;;;;;;;44.93;23.10;;;;;;;7.88;95.42;99159.85;124590;1102;101861;-77
2023/01/17 03:39:21;;;;;;;44.97;22.93;;;;;;;7.89;95.44;99163.34;124633;1105;102030;-80
2023/01/17 03:41:52;;;;;;;41.10;23.43;;;;;;;7.89;95.15;99156.38;124602;1105;118574;-79
2023/01/17 03:44:23;;;;;;;40.17;20.63;;;;;;;7.89;95.56;99160.72;124643;1102;104285;-77
2023/01/17 03:46:55;;;;;;;45.00;21.90;;;;;;;7.89;95.19;99153.77;124565;1105;101969;-80
2023/01/17 03:49:26;;;;;;;49.93;23.90;;;;;;;7.89;95.39;99155.50;124626;1105;101868;-79
2023/01/17 03:51:57;;;;;;;41.47;22.67;;;;;;;7.90;94.90;99150.31;124631;1105;104152;-78
2023/01/17 03:54:28;;;;;;;44.10;22.97;;;;;;;7.90;94.94;99144.22;124634;1105;102011;-77
2023/01/17 03:56:59;;;;;;;42.35;22.90;;;;;;;7.90;95.62;99146.83;124588;1103;102169;-79
2023/01/17 03:59:32;;;;;;;46.23;23.90;;;;;;;7.91;95.08;99154.67;124641;1105;104201;-78
2023/01/17 04:02:04;;;;;;;45.77;23.13;;;;;;;7.91;95.54;99151.19;124597;1102;102048;-77
2023/01/17 04:04:35;;;;;;;44.57;21.67;;;;;;;7.91;94.81;99151.19;124466;1105;102352;-78
2023/01/17 04:07:06;;;;;;;41.50;22.03;;;;;;;7.91;95.20;99148.58;124639;1102;104207;-79
2023/01/17 04:09:37;;;;;;;42.67;21.90;;;;;;;7.91;95.33;99148.58;124551;1102;104306;-78
2023/01/17 04:12:09;;;;;;;44.00;22.70;;;;;;;7.92;95.51;99153.84;124615;1102;104290;-78
2023/01/17 04:14:40;;;;;;;39.10;21.10;;;;;;;7.94;94.76;99153.00;124635;1105;102236;-78
2023/01/17 04:17:14;;;;;;;45.17;23.00;;;;;;;7.93;94.75;99152.09;124648;1103;103014;-80
2023/01/17 04:19:46;;;;;;;42.78;22.17;;;;;;;7.94;95.40;99153.88;124602;1105;104268;-78
2023/01/17 04:22:17;;;;;;;41.47;21.53;;;;;;;7.94;94.74;99151.27;124566;1102;104337;-78
2023/01/17 04:24:48;;;;;;;41.67;21.57;;;;;;;7.96;94.68;99157.40;124635;1102;102326;-79
2023/01/17 04:27:19;;;;;;;39.23;20.23;;;;;;;7.96;95.45;99146.08;124578;1102;104251;-79
2023/01/17 04:29:51;;;;;;;39.47;21.37;;;;;;;7.97;95.43;99142.63;124630;1102;104323;-79
2023/01/17 04:32:22;;;;;;;40.70;20.70;;;;;;;7.96;94.85;99146.95;124664;1102;104392;-80
2023/01/17 04:34:53;;;;;;;43.47;21.03;;;;;;;7.96;94.58;99152.17;124536;1102;101834;-79
2023/01/17 04:37:24;;;;;;;41.97;22.17;;;;;;;7.96;94.65;99140.85;124605;1102;104249;-77
2023/01/17 04:39:55;;;;;;;42.10;21.00;;;;;;;7.97;95.29;99142.63;124620;1102;101804;-77
2023/01/17 04:42:27;;;;;;;40.23;22.23;;;;;;;7.96;95.26;99154.78;124578;1102;104239;-77
2023/01/17 04:44:58;;;;;;;39.67;21.60;;;;;;;7.97;94.57;99163.53;124501;1104;104360;-79
2023/01/17 04:47:29;;;;;;;41.87;21.80;;;;;;;7.97;94.64;99163.53;124492;1105;104156;-76
2023/01/17 04:50:00;;;;;;;46.27;22.63;;;;;;;7.98;94.62;99166.18;124591;1103;102351;-77
2023/01/17 04:52:32;;;;;;;41.03;21.23;;;;;;;7.98;94.68;99160.05;124630;1102;104235;-76
2023/01/17 04:55:03;;;;;;;37.83;20.57;;;;;;;7.98;94.54;99153.12;124755;1102;101840;-77
2023/01/17 04:57:34;;;;;;;42.87;20.97;;;;;;;7.98;95.18;99166.18;124683;1102;101943;-76
2023/01/17 05:00:08;;;;;;;41.37;21.37;;;;;;;7.97;94.61;99160.92;124679;1102;102195;-75
2023/01/17 05:02:39;;;;;;;41.00;21.97;;;;;;;7.96;94.56;99164.36;124612;1102;104201;-76
2023/01/17 05:05:12;;;;;;;44.80;21.73;;;;;;;7.96;95.15;99166.97;124616;1105;104198;-76
2023/01/17 05:07:43;;;;;;;43.90;22.07;;;;;;;7.95;94.55;99165.20;124661;1102;104249;-75
2023/01/17 05:10:14;;;;;;;41.10;21.60;;;;;;;7.95;95.14;99160.88;124661;1102;102776;-76
2023/01/17 05:12:52;;;;;;;44.70;22.83;;;;;;;7.94;95.06;99156.48;124609;1100;101917;-78
2023/01/17 05:15:25;;;;;;;44.13;22.33;;;;;;;7.94;95.19;99163.45;124750;1102;101972;-77
2023/01/17 05:17:56;;;;;;;44.55;20.75;;;;;;;7.92;94.51;99156.45;124615;1102;102164;-77
2023/01/17 05:20:28;;;;;;;42.23;21.73;;;;;;;7.91;95.20;99157.28;124623;1102;102237;-76
2023/01/17 05:22:59;;;;;;;46.03;22.63;;;;;;;7.89;95.18;99148.53;124749;1102;104344;-77
2023/01/17 05:25:32;;;;;;;41.30;21.27;;;;;;;7.90;94.97;99159.89;124645;1102;103233;-77
2023/01/17 05:28:03;;;;;;;39.33;20.13;;;;;;;7.89;94.55;99160.72;124622;1102;104086;-76
2023/01/17 05:30:35;;;;;;;42.50;22.40;;;;;;;7.86;94.87;99174.58;124744;1102;104185;-75
2023/01/17 05:33:08;;;;;;;42.03;21.10;;;;;;;7.85;94.66;99172.84;124558;1102;101878;-76
2023/01/17 05:35:39;;;;;;;48.90;23.60;;;;;;;7.84;95.24;99172.80;124575;1102;104248;-79
2023/01/17 05:38:10;;;;;;;37.93;20.30;;;;;;;7.83;94.99;99174.50;124585;1102;104104;-79
2023/01/17 05:40:42;;;;;;;43.37;22.77;;;;;;;7.82;95.02;99164.92;124615;1102;102516;-79
2023/01/17 05:43:13;;;;;;;42.93;21.50;;;;;;;7.81;95.14;99163.14;124697;1102;104206;-79
2023/01/17 05:45:47;;;;;;;42.87;22.47;;;;;;;7.80;94.91;99176.16;124594;1102;104204;-76
2023/01/17 05:48:19;;;;;;;43.05;20.85;;;;;;;7.78;95.14;99176.13;124656;1102;104316;-77
2023/01/17 05:50:51;;;;;;;41.33;21.33;;;;;;;7.77;94.58;99171.73;124504;1102;104255;-76
2023/01/17 05:53:22;;;;;;;42.03;21.13;;;;;;;7.75;95.08;99178.66;124491;1102;104175;-75
2023/01/17 05:55:54;;;;;;;41.23;22.23;;;;;;;7.67;94.47;99169.75;124581;1105;104284;-75
2023/01/17 05:58:27;;;;;;;42.73;21.27;;;;;;;7.61;94.85;99166.98;124539;1105;104233;-77
2023/01/17 06:00:59;;;;;;;41.00;20.43;;;;;;;7.58;95.50;99179.95;124472;1102;104284;-76
2023/01/17 06:03:30;;;;;;;41.30;20.90;;;;;;;7.58;95.28;99177.34;124518;1102;104277;-77
2023/01/17 06:06:01;;;;;;;41.43;21.37;;;;;;;7.55;95.12;99163.34;124535;1102;104258;-77
2023/01/17 06:08:41;;;;;;;46.00;22.63;;;;;;;7.54;95.77;99163.30;124577;1102;102757;-78
2023/01/17 06:11:13;;;;;;;43.20;22.10;;;;;;;7.53;95.06;99151.98;124622;1102;102327;-77
2023/01/17 06:13:44;;;;;;;43.90;21.50;;;;;;;7.51;95.11;99158.00;124623;1102;105512;-77
2023/01/17 06:16:21;;;;;;;42.07;21.50;;;;;;;7.50;95.52;99149.29;124486;1105;104341;-75
2023/01/17 06:18:52;;;;;;;48.28;22.13;;;;;;;7.52;95.07;99154.55;124508;1102;102786;-75
2023/01/17 06:21:24;;;;;;;41.27;21.53;;;;;;;7.51;95.48;99152.77;124510;1102;104277;-74
2023/01/17 06:23:59;;;;;;;43.87;22.07;;;;;;;7.52;95.95;99142.38;124490;1102;101846;-75
2023/01/17 06:26:33;;;;;;;44.53;22.57;;;;;;;7.54;95.46;99132.87;124669;1102;103610;-76
2023/01/17 06:29:03;;;;;;;;;;;;;;;7.53;95.25;99136.32;124719;1102;104297;-76
2023/01/17 06:31:34;;;;;;;46.25;22.75;;;;;;;7.51;95.24;99124.97;124589;1102;104178;-76
2023/01/17 06:34:09;;;;;;;46.40;22.97;;;;;;;7.50;95.50;99124.92;124515;1102;104188;-77
2023/01/17 06:36:53;;;;;;;43.33;23.47;;;;;;;7.53;95.06;99122.40;124573;1105;104220;-76
2023/01/17 06:39:24;;;;;;;45.67;23.03;;;;;;;7.57;94.85;99137.27;124722;1105;102927;-76
2023/01/17 06:41:57;;;;;;;43.10;22.93;;;;;;;7.61;95.65;99133.04;124714;1105;104230;-76
2023/01/17 06:44:31;;;;;;;42.23;21.47;;;;;;;7.65;95.26;99124.42;124755;1102;104264;-76
2023/01/17 06:47:03;;;;;;;45.70;23.17;;;;;;;7.69;95.29;99115.83;124767;1102;104652;-77
2023/01/17 06:49:37;;;;;;;47.20;23.85;;;;;;;7.74;95.36;99128.17;124635;1102;104280;-75
2023/01/17 06:52:09;;;;;;;45.80;23.23;;;;;;;7.78;95.04;99123.89;126030;1102;102696;-75
2023/01/17 06:54:40;;;;;;;49.27;24.30;;;;;;;7.83;95.33;99124.87;124681;1102;102159;-75
2023/01/17 06:57:12;;;;;;;42.37;22.27;;;;;;;7.94;95.84;99116.44;124543;1106;104390;-75
2023/01/17 06:59:43;;;;;;;45.10;23.33;;;;;;;8.01;95.73;99115.72;124565;1102;103214;-74
2023/01/17 07:02:15;;;;;;;45.57;24.03;;;;;;;8.06;95.65;99121.95;124440;1103;104339;-76
2023/01/17 07:04:47;;;;;;;46.33;24.30;;;;;;;8.12;95.12;99127.33;124632;1102;104255;-76
2023/01/17 07:07:21;;;;;;;45.60;23.87;;;;;;;8.20;95.31;99127.51;124619;1102;103286;-75
2023/01/17 07:09:56;;;;;;;43.87;23.90;;;;;;;8.30;95.44;99129.46;124678;1102;102891;-74
2023/01/17 07:12:26;;;;;;;;;;;;;;;8.31;95.05;99131.24;124778;1102;104306;-77
2023/01/17 07:14:59;;;;;;;44.77;23.50;;;;;;;8.33;94.69;99132.15;124919;1102;102102;-76
2023/01/17 07:17:31;;;;;;;48.87;24.27;;;;;;;8.33;94.42;99126.92;124997;1105;102791;-75
2023/01/17 07:20:05;;;;;;;44.70;23.03;;;;;;;8.33;94.86;99133.89;124828;1105;104230;-77
2023/01/17 07:22:36;;;;;;;;;;;;;;;8.28;94.29;99128.55;124969;1102;103308;-76
2023/01/17 07:25:11;;;;;;;43.87;23.20;;;;;;;8.31;94.81;99135.59;124806;1101;104196;-77
2023/01/17 07:27:44;;;;;;;44.50;23.43;;;;;;;8.33;94.71;99137.38;124787;1101;103785;-77
2023/01/17 07:30:18;;;;;;;45.43;22.90;;;;;;;8.40;94.77;99138.42;124868;1102;102861;-78
2023/01/17 07:32:54;;;;;;;42.00;22.50;;;;;;;8.38;94.70;99127.02;125075;1102;104173;-75
2023/01/17 07:35:26;;;;;;;43.87;23.10;;;;;;;8.43;94.25;99112.31;124797;1102;104227;-76
2023/01/17 07:38:01;;;;;;;42.80;21.90;;;;;;;8.48;94.58;99121.20;125052;1102;103122;-74
2023/01/17 07:40:33;;;;;;;44.27;22.80;;;;;;;8.58;94.64;99119.66;125366;1100;102598;-74
2023/01/17 07:43:12;;;;;;;44.57;24.00;;;;;;;8.63;94.71;99124.14;124848;1102;104745;-75
2023/01/17 07:45:45;;;;;;;48.47;23.87;;;;;;;8.70;94.56;99126.89;124803;1102;102716;-75
2023/01/17 07:48:17;;;;;;;44.50;23.30;;;;;;;8.73;94.30;99121.73;125030;1102;102218;-76
2023/01/17 07:50:55;;;;;;;43.60;22.13;;;;;;;8.74;93.87;99118.23;125089;1102;103278;-74
2023/01/17 07:53:28;;;;;;;40.33;20.87;;;;;;;8.72;94.11;99122.57;125118;1102;102284;-76
2023/01/17 07:56:04;;;;;;;43.27;21.90;;;;;;;8.74;94.26;99126.09;125209;1102;102861;-75
2023/01/17 07:58:36;;;;;;;39.20;20.10;;;;;;;8.80;93.61;99128.83;125620;1093;104227;-75
2023/01/17 08:01:10;;;;;;;41.63;23.10;;;;;;;8.89;93.85;99131.64;125720;1093;103078;-76
2023/01/17 08:03:44;;;;;;;39.33;21.17;;;;;;;8.96;93.61;99106.48;125483;1102;103033;-77
2023/01/17 08:06:22;;;;;;;46.30;23.67;;;;;;;9.12;92.67;99115.53;124818;1102;103358;-78
2023/01/17 08:08:57;;;;;;;40.07;21.40;;;;;;;9.22;93.22;99122.69;125134;1102;102170;-76
2023/01/17 08:11:32;;;;;;;40.97;21.60;;;;;;;9.31;93.03;99128.09;125019;1102;102589;-76
2023/01/17 08:14:04;;;;;;;44.03;22.63;;;;;;;9.41;93.04;99134.41;124830;1103;102406;-76
2023/01/17 08:16:36;;;;;;;39.10;21.00;;;;;;;9.53;92.80;99134.59;124712;1102;102991;-74
2023/01/17 08:19:08;;;;;;;42.73;21.03;;;;;;;9.63;92.10;99134.77;124748;1102;102259;-74
2023/01/17 08:21:40;;;;;;;44.87;21.80;;;;;;;9.62;92.30;99133.89;124833;1102;104360;-74
2023/01/17 08:24:14;;;;;;;39.70;20.90;;;;;;;9.65;91.59;99133.08;124798;1102;102308;-75
2023/01/17 08:26:48;;;;;;;41.03;20.53;;;;;;;9.68;91.56;99134.00;124957;1102;104182;-78
2023/01/17 08:29:21;;;;;;;40.57;21.30;;;;;;;9.71;91.68;99134.05;124974;1102;104258;-78
2023/01/17 08:31:54;;;;;;;36.90;19.63;;;;;;;9.74;92.07;99134.95;125378;1102;102852;-77
2023/01/17 08:34:26;;;;;;;35.57;19.30;;;;;;;9.74;91.58;99125.37;125219;1102;104306;-76
2023/01/17 08:36:58;;;;;;;35.10;19.40;;;;;;;9.71;91.97;99128.81;125463;1102;102203;-77
2023/01/17 08:39:30;;;;;;;56.27;22.30;;;;;;;9.71;89.89;99117.47;125413;1102;102843;-77
2023/01/17 08:42:08;;;;;;;37.37;18.60;;;;;;;9.68;89.73;99113.05;125991;1096;102627;-75
2023/01/17 08:44:42;;;;;;;37.50;19.20;;;;;;;9.71;90.53;99113.10;126665;1093;102767;-75
2023/01/17 08:47:13;;;;;;;36.13;18.97;;;;;;;9.77;90.67;99087.85;125192;1102;104216;-75
2023/01/17 08:49:47;;;;;;;38.47;18.70;;;;;;;9.84;89.08;99087.11;125540;1102;102551;-74
2023/01/17 08:52:21;;;;;;;35.77;17.50;;;;;;;9.88;90.48;99089.80;125346;1102;102352;-75
2023/01/17 08:54:53;;;;;;;30.33;16.50;;;;;;;9.89;89.38;99094.20;125403;1102;103345;-74
2023/01/17 08:57:25;;;;;;;36.47;18.40;;;;;;;9.88;89.00;99105.52;125695;1102;102435;-74
2023/01/17 09:02:47;;;;;;;32.90;18.00;;;;;;;9.91;89.06;99086.36;125338;1102;104380;-78
2023/01/17 09:05:20;;;;;;;35.53;18.60;;;;;;;9.93;89.20;99087.26;125513;1093;102643;-74
2023/01/17 09:08:08;;;;;;;32.73;17.73;;;;;;;9.94;88.20;99085.51;125863;1096;102668;-75
2023/01/17 09:10:42;;;;;;;33.43;17.23;;;;;;;9.90;89.29;99071.48;125258;1102;102452;-75
2023/01/17 09:13:14;;;;;;;34.30;17.77;;;;;;;9.86;88.17;99067.05;125362;1102;103686;-75
2023/01/17 09:15:45;;;;;;;33.03;18.10;;;;;;;9.87;88.54;99079.30;125022;1102;102780;-75
2023/01/17 09:18:17;;;;;;;44.75;19.15;;;;;;;9.88;87.37;99066.22;125595;1102;102926;-77
2023/01/17 09:20:53;;;;;;;35.20;17.83;;;;;;;9.93;88.68;99040.09;125140;1102;103788;-76
2023/01/17 09:23:32;;;;;;;35.83;18.63;;;;;;;10.02;88.87;99040.23;125452;1102;103197;-75
2023/01/17 09:26:06;;;;;;;34.30;17.43;;;;;;;10.08;87.17;99028.93;124963;1102;102980;-77
2023/01/17 09:28:39;;;;;;;31.60;16.67;;;;;;;10.08;87.79;99029.83;125396;1102;103728;-77
2023/01/17 09:31:14;;;;;;;34.45;18.32;;;;;;;10.12;87.20;99043.85;125507;1102;103261;-77
2023/01/17 09:33:50;;;;;;;35.37;17.90;;;;;;;10.09;86.98;99051.67;125713;1100;102928;-75
2023/01/17 09:36:35;;;;;;;35.25;18.48;;;;;;;10.07;86.46;99049.03;125655;1102;104184;-75
2023/01/17 09:39:37;;;;;;;36.20;18.53;;;;;;;10.08;86.68;99042.94;125838;1102;102974;-79
2023/01/17 09:42:30;;;;;;;31.57;16.37;;;;;;;10.12;86.68;99032.50;125667;1102;101913;-76
2023/01/17 09:45:01;;;;;;;;;;;;;;;10.12;84.42;99017.64;125855;1102;101991;-76
2023/01/17 09:47:40;;;;;;;30.53;15.53;;;;;;;10.15;85.26;99004.58;125221;1102;103492;-76
2023/01/17 09:50:31;;;;;;;32.77;17.33;;;;;;;10.17;86.06;99004.59;124959;1102;102537;-75
2023/01/17 09:53:07;;;;;;;36.80;18.13;;;;;;;10.16;86.26;99016.84;126582;1101;103724;-80
2023/01/17 09:55:47;;;;;;;36.23;18.43;;;;;;;10.18;86.24;99016.86;126330;1101;101913;-77
2023/01/17 09:58:26;;;;;;;36.93;18.53;;;;;;;10.21;86.01;99019.52;125796;1102;102118;-78
2023/01/17 10:01:13;;;;;;;40.20;18.37;;;;;;;10.25;85.73;99021.30;126260;1101;102827;-78
2023/01/17 10:03:55;;;;;;;34.10;17.23;;;;;;;10.26;84.74;99018.70;126191;1102;102473;-78
2023/01/17 10:06:43;;;;;;;33.47;16.97;;;;;;;10.29;84.26;99002.14;125988;1102;103841;-78
2023/01/17 10:09:45;;;;;;;32.40;16.10;;;;;;;10.36;83.86;98992.63;126065;1102;103244;-77
2023/01/17 10:12:25;;;;;;;34.23;17.40;;;;;;;10.45;84.04;98990.13;126099;1102;101994;-79
2023/01/17 10:15:28;;;;;;;30.37;16.90;;;;;;;10.52;84.42;98993.72;125999;1102;104156;-75
2023/01/17 10:18:18;;;;;;;32.33;15.83;;;;;;;10.53;83.75;99000.70;125228;1102;102602;-75
2023/01/17 10:21:08;;;;;;;32.40;16.57;;;;;;;10.51;83.82;99002.45;125830;1093;102450;-76
2023/01/17 10:24:07;;;;;;;29.60;16.57;;;;;;;10.53;83.46;99006.86;125145;1102;103193;-75
2023/01/17 10:26:47;;;;;;;32.00;16.60;;;;;;;10.57;83.83;99002.52;125239;1102;104236;-77
2023/01/17 10:29:23;;;;;;;32.07;16.23;;;;;;;10.64;84.56;98990.34;124787;1102;104176;-77
2023/01/17 10:32:01;;;;;;;33.80;16.13;;;;;;;10.72;84.55;98986.95;125014;1102;102220;-78
2023/01/17 10:34:40;;;;;;;31.67;16.43;;;;;;;10.78;84.13;98981.77;125022;1102;104233;-76
2023/01/17 10:37:23;;;;;;;30.53;16.80;;;;;;;10.86;83.93;98978.33;125160;1102;102688;-77
2023/01/17 10:40:03;;;;;;;29.63;15.73;;;;;;;10.99;84.67;98972.34;126358;1093;102674;-77
2023/01/17 10:42:43;;;;;;;30.10;16.23;;;;;;;11.07;84.47;98965.41;125097;1102;104188;-77
2023/01/17 10:45:24;;;;;;;30.13;15.37;;;;;;;11.06;83.70;98974.14;125292;1102;103020;-77
2023/01/17 10:48:04;;;;;;;26.97;14.33;;;;;;;11.08;83.96;98972.44;125011;1102;102352;-77
2023/01/17 10:50:46;;;;;;;33.47;16.03;;;;;;;11.12;83.37;98971.58;124718;1102;104079;-77
2023/01/17 10:53:33;;;;;;;25.23;13.10;;;;;;;11.19;83.59;98963.75;124912;1102;102974;-76
2023/01/17 10:56:05;;;;;;;28.43;15.10;;;;;;;11.26;84.20;98963.82;124695;1102;104108;-78
2023/01/17 10:58:37;;;;;;;26.63;15.20;;;;;;;11.28;83.49;98962.11;124772;1102;102587;-76
2023/01/17 11:01:17;;;;;;;27.23;15.47;;;;;;;11.34;84.35;98953.38;124740;1102;104012;-75
2023/01/17 11:03:53;;;;;;;29.93;15.63;;;;;;;11.37;84.04;98956.03;125738;1093;109709;-75
2023/01/17 11:06:27;;;;;;;27.53;14.83;;;;;;;11.39;83.82;98946.44;125508;1102;103194;-74
2023/01/17 11:09:00;;;;;;;27.73;13.65;;;;;;;11.42;83.35;98943.84;126208;1093;102362;-75
2023/01/17 11:11:36;;;;;;;29.30;14.73;;;;;;;11.49;84.19;98953.50;125109;1103;102339;-75
2023/01/17 11:14:16;;;;;;;25.93;13.03;;;;;;;11.62;84.02;98945.70;125953;1093;120300;-74
2023/01/17 11:17:27;;;;;;;27.53;13.83;;;;;;;11.77;83.77;98943.17;125861;1093;102555;-73
2023/01/17 11:20:16;;;;;;;25.37;13.13;;;;;;;11.91;83.17;98935.38;125375;1102;104108;-74
2023/01/17 11:23:12;;;;;;;23.10;11.27;;;;;;;12.03;83.37;98934.59;125227;1102;102915;-75
2023/01/17 11:25:51;;;;;;;25.73;11.87;;;;;;;12.11;83.48;98934.63;124971;1102;104292;-74
2023/01/17 11:28:29;;;;;;;20.93;10.50;;;;;;;12.14;82.93;98930.26;125214;1102;102629;-75
2023/01/17 11:31:03;;;;;;;20.17;9.63;;;;;;;12.11;81.75;98934.63;125311;1102;104224;-73
2023/01/17 11:34:05;;;;;;;23.00;10.33;;;;;;;12.04;81.79;98925.81;125409;1102;103124;-74
2023/01/17 11:36:42;;;;;;;24.63;11.17;;;;;;;11.95;81.60;98929.30;125343;1102;102881;-75
2023/01/17 11:39:32;;;;;;;21.43;9.70;;;;;;;11.86;80.15;98919.58;125954;1093;102168;-76
2023/01/17 11:42:33;;;;;;;21.17;9.77;;;;;;;11.80;80.60;98932.68;125812;1102;103342;-75
2023/01/17 11:45:32;;;;;;;19.07;9.20;;;;;;;11.73;81.39;98933.50;126036;1101;109457;-76
2023/01/17 11:48:17;;;;;;;20.27;8.40;;;;;;;11.62;77.91;98936.06;125773;1105;102151;-77
2023/01/17 11:50:56;;;;;;;21.52;8.95;;;;;;;11.57;79.95;98927.28;125931;1102;102459;-78
2023/01/17 11:53:32;;;;;;;17.37;8.30;;;;;;;11.50;79.85;98921.12;126200;1102;102031;-77
2023/01/17 11:56:18;;;;;;;17.67;8.30;;;;;;;11.42;80.04;98933.33;126037;1102;102042;-77
2023/01/17 11:58:51;;;;;;;16.73;8.43;;;;;;;11.34;79.56;98932.38;126005;1101;102547;-76
2023/01/17 12:01:37;;;;;;;20.00;8.80;;;;;;;11.29;79.68;98927.09;126083;1102;102780;-76
2023/01/17 12:04:29;;;;;;;18.83;8.93;;;;;;;11.29;80.09;98934.96;126051;1102;102743;-77
2023/01/17 12:07:17;;;;;;;14.10;7.53;;;;;;;11.32;79.47;98928.86;126113;1101;101767;-76
2023/01/17 12:09:56;;;;;;;21.50;7.93;;;;;;;11.34;79.35;98927.12;126161;1102;101963;-76
2023/01/17 12:15:38;;;;;;;;;;;;;;;11.42;79.21;98933.33;126073;1102;102756;-76
2023/01/17 12:18:30;;;;;;;16.87;7.90;;;;;;;11.45;80.04;98938.61;126340;1102;101874;-78
2023/01/17 12:21:15;;;;;;;18.67;9.00;;;;;;;11.46;79.92;98928.97;126302;1102;102014;-76
2023/01/17 12:24:12;;;;;;;19.97;9.23;;;;;;;11.46;79.98;98927.21;126216;1102;101865;-77
2023/01/17 12:26:55;;;;;;;18.50;9.23;;;;;;;11.48;79.97;98930.75;126417;1102;102273;-77
2023/01/17 12:29:46;;;;;;;18.13;8.40;;;;;;;11.47;79.36;98928.11;126436;1101;103025;-77
2023/01/17 12:32:35;;;;;;;14.43;7.27;;;;;;;11.43;78.68;98935.06;126138;1102;103193;-78
2023/01/17 12:35:14;;;;;;;16.27;7.23;;;;;;;11.39;79.33;98949.06;124893;1102;103925;-77
2023/01/17 12:37:50;;;;;;;17.63;8.37;;;;;;;11.35;79.12;98949.03;124652;1102;103667;-75
2023/01/17 12:40:32;;;;;;;18.83;7.87;;;;;;;11.30;79.11;98954.24;125295;1102;103329;-77
2023/01/17 12:43:13;;;;;;;22.43;8.53;;;;;;;11.28;79.41;98958.58;125667;1093;102971;-78
2023/01/17 12:46:02;;;;;;;21.33;8.47;;;;;;;11.26;79.47;98970.83;125798;1102;102865;-79
2023/01/17 12:48:48;;;;;;;22.70;8.97;;;;;;;11.25;79.17;98955.93;125934;1101;102758;-77
2023/01/17 12:51:28;;;;;;;20.63;8.73;;;;;;;11.28;78.62;98975.23;125669;1102;102769;-75
2023/01/17 12:54:11;;;;;;;15.50;7.50;;;;;;;11.31;79.37;98982.24;124915;1102;103086;-77
2023/01/17 12:56:52;;;;;;;16.70;7.80;;;;;;;11.36;79.64;98972.67;125156;1102;104209;-77
2023/01/17 12:59:45;;;;;;;17.73;8.33;;;;;;;11.42;79.65;98980.61;125126;1102;103360;-76
2023/01/17 13:02:34;;;;;;;28.87;9.13;;;;;;;11.46;79.70;98987.63;125804;1102;102454;-76
2023/01/17 13:05:22;;;;;;;84.20;16.07;;;;;;;11.51;79.84;99000.79;126064;1100;102422;-76
2023/01/17 13:08:16;;;;;;;33.90;10.93;;;;;;;11.51;79.67;99006.05;126025;1102;102123;-77
2023/01/17 13:13:49;;;;;;;22.23;9.10;;;;;;;11.48;79.87;99006.92;126068;1101;102166;-79
2023/01/17 13:16:53;;;;;;;;;;;;;;;;;;;;;
2023/01/17 13:19:44;;;;;;;12.70;6.67;;;;;;;11.56;79.56;98999.10;125905;1101;103274;-76
2023/01/17 13:22:23;;;;;;;14.83;6.80;;;;;;;11.57;79.20;98994.72;125816;1102;102455;-78
2023/01/17 13:25:12;;;;;;;16.43;7.10;;;;;;;11.56;78.98;98998.20;125777;1102;104215;-79
2023/01/17 13:28:12;;;;;;;13.47;6.93;;;;;;;11.59;79.25;98990.34;125729;1102;110796;-80